sensor_id;sensor_type;location;lat;lon;timestamp;P1;durP1;ratioP1;P2;durP2;ratioP2
3704;SDS011;1868;48.918;9.438;2023-05-20T00:02:03;7.10;;;3.80;;
3704;SDS011;1868;48.918;9.438;2023-05-20T00:04:33;3.77;;;3.43;;
3704;SDS011;1868;48.918;9.438;2023-05-20T00:07:05;6.23;;;3.50;;
3704;SDS011;1868;48.918;9.438;2023-05-20T00:09:37;4.23;;;3.83;;
3704;SDS011;1868;48.918;9.438;2023-05-20T00:12:07;4.33;;;3.57;;
3704;SDS011;1868;48.918;9.438;2023-05-20T00:14:36;5.67;;;3.67;;
3704;SDS011;1868;48.918;9.438;2023-05-20T00:17:06;5.23;;;3.10;;
3704;SDS011;1868;48.918;9.438;2023-05-20T00:19:37;3.53;;;3.10;;
3704;SDS011;1868;48.918;9.438;2023-05-20T00:22:06;4.23;;;3.90;;
3704;SDS011;1868;48.918;9.438;2023-05-20T00:24:36;4.30;;;3.47;;
3704;SDS011;1868;48.918;9.438;2023-05-20T00:27:09;9.20;;;4.10;;
3704;SDS011;1868;48.918;9.438;2023-05-20T00:29:38;7.13;;;3.80;;
3704;SDS011;1868;48.918;9.438;2023-05-20T00:32:06;4.87;;;3.10;;
3704;SDS011;1868;48.918;9.438;2023-05-20T00:34:36;3.50;;;3.13;;
3704;SDS011;1868;48.918;9.438;2023-05-20T00:37:05;3.10;;;2.80;;
3704;SDS011;1868;48.918;9.438;2023-05-20T00:39:33;2.83;;;2.50;;
3704;SDS011;1868;48.918;9.438;2023-05-20T00:42:02;2.90;;;2.70;;
3704;SDS011;1868;48.918;9.438;2023-05-20T00:44:32;3.60;;;3.30;;
3704;SDS011;1868;48.918;9.438;2023-05-20T00:47:01;3.10;;;2.83;;
3704;SDS011;1868;48.918;9.438;2023-05-20T00:49:32;4.50;;;2.57;;
3704;SDS011;1868;48.918;9.438;2023-05-20T00:52:01;3.20;;;2.90;;
3704;SDS011;1868;48.918;9.438;2023-05-20T00:54:30;3.90;;;2.90;;
3704;SDS011;1868;48.918;9.438;2023-05-20T00:56:59;4.03;;;3.07;;
3704;SDS011;1868;48.918;9.438;2023-05-20T00:59:29;2.63;;;2.43;;
3704;SDS011;1868;48.918;9.438;2023-05-20T01:02:01;3.90;;;3.10;;
3704;SDS011;1868;48.918;9.438;2023-05-20T01:04:33;7.40;;;2.97;;
3704;SDS011;1868;48.918;9.438;2023-05-20T01:07:04;3.87;;;2.67;;
3704;SDS011;1868;48.918;9.438;2023-05-20T01:09:34;3.40;;;2.37;;
3704;SDS011;1868;48.918;9.438;2023-05-20T01:12:05;2.73;;;2.53;;
3704;SDS011;1868;48.918;9.438;2023-05-20T01:14:42;3.00;;;2.53;;
3704;SDS011;1868;48.918;9.438;2023-05-20T01:17:18;4.27;;;2.80;;
3704;SDS011;1868;48.918;9.438;2023-05-20T01:19:48;2.80;;;2.60;;
3704;SDS011;1868;48.918;9.438;2023-05-20T01:22:24;4.10;;;3.30;;
3704;SDS011;1868;48.918;9.438;2023-05-20T01:24:53;2.97;;;2.77;;
3704;SDS011;1868;48.918;9.438;2023-05-20T01:27:24;3.53;;;2.83;;
3704;SDS011;1868;48.918;9.438;2023-05-20T01:29:55;3.97;;;3.00;;
3704;SDS011;1868;48.918;9.438;2023-05-20T01:32:27;5.53;;;3.33;;
3704;SDS011;1868;48.918;9.438;2023-05-20T01:35:02;2.23;;;2.13;;
3704;SDS011;1868;48.918;9.438;2023-05-20T01:37:35;3.77;;;2.60;;
3704;SDS011;1868;48.918;9.438;2023-05-20T01:40:07;2.80;;;2.60;;
3704;SDS011;1868;48.918;9.438;2023-05-20T01:42:41;4.13;;;2.80;;
3704;SDS011;1868;48.918;9.438;2023-05-20T01:45:19;4.90;;;3.10;;
3704;SDS011;1868;48.918;9.438;2023-05-20T01:47:48;6.43;;;3.60;;
3704;SDS011;1868;48.918;9.438;2023-05-20T01:50:17;3.37;;;2.93;;
3704;SDS011;1868;48.918;9.438;2023-05-20T01:52:50;3.43;;;3.13;;
3704;SDS011;1868;48.918;9.438;2023-05-20T01:55:21;4.10;;;3.27;;
3704;SDS011;1868;48.918;9.438;2023-05-20T01:57:53;5.27;;;3.73;;
3704;SDS011;1868;48.918;9.438;2023-05-20T02:00:22;4.17;;;3.80;;
3704;SDS011;1868;48.918;9.438;2023-05-20T02:02:52;4.83;;;3.50;;
3704;SDS011;1868;48.918;9.438;2023-05-20T02:05:22;3.70;;;3.27;;
3704;SDS011;1868;48.918;9.438;2023-05-20T02:07:53;2.97;;;2.70;;
3704;SDS011;1868;48.918;9.438;2023-05-20T02:10:21;4.10;;;3.70;;
3704;SDS011;1868;48.918;9.438;2023-05-20T02:12:50;5.60;;;3.50;;
3704;SDS011;1868;48.918;9.438;2023-05-20T02:15:20;3.17;;;2.90;;
3704;SDS011;1868;48.918;9.438;2023-05-20T02:17:49;3.67;;;3.37;;
3704;SDS011;1868;48.918;9.438;2023-05-20T02:20:19;2.70;;;2.50;;
3704;SDS011;1868;48.918;9.438;2023-05-20T02:22:48;3.80;;;3.47;;
3704;SDS011;1868;48.918;9.438;2023-05-20T02:25:18;3.43;;;3.13;;
3704;SDS011;1868;48.918;9.438;2023-05-20T02:27:47;3.60;;;3.30;;
3704;SDS011;1868;48.918;9.438;2023-05-20T02:30:16;3.83;;;3.43;;
3704;SDS011;1868;48.918;9.438;2023-05-20T02:32:48;3.20;;;2.80;;
3704;SDS011;1868;48.918;9.438;2023-05-20T02:35:17;4.57;;;2.93;;
3704;SDS011;1868;48.918;9.438;2023-05-20T02:37:46;3.07;;;2.77;;
3704;SDS011;1868;48.918;9.438;2023-05-20T02:40:15;3.67;;;3.17;;
3704;SDS011;1868;48.918;9.438;2023-05-20T02:42:47;3.70;;;3.40;;
3704;SDS011;1868;48.918;9.438;2023-05-20T02:45:17;9.70;;;3.20;;
3704;SDS011;1868;48.918;9.438;2023-05-20T02:47:49;9.30;;;3.03;;
3704;SDS011;1868;48.918;9.438;2023-05-20T02:50:18;4.37;;;3.50;;
3704;SDS011;1868;48.918;9.438;2023-05-20T02:52:48;7.43;;;2.90;;
3704;SDS011;1868;48.918;9.438;2023-05-20T02:55:16;6.90;;;3.90;;
3704;SDS011;1868;48.918;9.438;2023-05-20T02:57:48;4.37;;;3.97;;
3704;SDS011;1868;48.918;9.438;2023-05-20T03:00:17;3.53;;;3.23;;
3704;SDS011;1868;48.918;9.438;2023-05-20T03:02:48;4.10;;;3.60;;
3704;SDS011;1868;48.918;9.438;2023-05-20T03:05:17;4.33;;;3.90;;
3704;SDS011;1868;48.918;9.438;2023-05-20T03:07:45;3.43;;;2.90;;
3704;SDS011;1868;48.918;9.438;2023-05-20T03:10:14;5.90;;;4.00;;
3704;SDS011;1868;48.918;9.438;2023-05-20T03:12:45;3.33;;;3.03;;
3704;SDS011;1868;48.918;9.438;2023-05-20T03:15:15;4.07;;;3.00;;
3704;SDS011;1868;48.918;9.438;2023-05-20T03:17:44;4.20;;;3.80;;
3704;SDS011;1868;48.918;9.438;2023-05-20T03:20:14;4.00;;;3.20;;
3704;SDS011;1868;48.918;9.438;2023-05-20T03:22:43;2.87;;;2.67;;
3704;SDS011;1868;48.918;9.438;2023-05-20T03:25:14;4.10;;;3.53;;
3704;SDS011;1868;48.918;9.438;2023-05-20T03:27:44;3.90;;;3.57;;
3704;SDS011;1868;48.918;9.438;2023-05-20T03:30:12;3.30;;;3.00;;
3704;SDS011;1868;48.918;9.438;2023-05-20T03:32:43;5.60;;;3.70;;
3704;SDS011;1868;48.918;9.438;2023-05-20T03:35:14;3.77;;;3.53;;
3704;SDS011;1868;48.918;9.438;2023-05-20T03:37:46;11.27;;;3.57;;
3704;SDS011;1868;48.918;9.438;2023-05-20T03:40:20;3.60;;;3.30;;
3704;SDS011;1868;48.918;9.438;2023-05-20T03:42:53;4.23;;;2.83;;
3704;SDS011;1868;48.918;9.438;2023-05-20T03:45:25;4.13;;;3.47;;
3704;SDS011;1868;48.918;9.438;2023-05-20T03:48:02;3.93;;;3.53;;
3704;SDS011;1868;48.918;9.438;2023-05-20T03:50:33;6.60;;;3.80;;
3704;SDS011;1868;48.918;9.438;2023-05-20T03:53:05;3.53;;;3.00;;
3704;SDS011;1868;48.918;9.438;2023-05-20T03:55:38;4.53;;;4.13;;
3704;SDS011;1868;48.918;9.438;2023-05-20T03:58:11;4.97;;;3.80;;
3704;SDS011;1868;48.918;9.438;2023-05-20T04:00:45;6.33;;;3.40;;
3704;SDS011;1868;48.918;9.438;2023-05-20T04:03:15;5.30;;;3.90;;
3704;SDS011;1868;48.918;9.438;2023-05-20T04:05:45;5.50;;;4.13;;
3704;SDS011;1868;48.918;9.438;2023-05-20T04:08:20;3.70;;;3.40;;
3704;SDS011;1868;48.918;9.438;2023-05-20T04:10:54;11.23;;;5.10;;
3704;SDS011;1868;48.918;9.438;2023-05-20T04:13:23;6.47;;;3.80;;
3704;SDS011;1868;48.918;9.438;2023-05-20T04:15:54;3.40;;;3.10;;
3704;SDS011;1868;48.918;9.438;2023-05-20T04:18:23;3.60;;;2.90;;
3704;SDS011;1868;48.918;9.438;2023-05-20T04:20:55;4.30;;;3.90;;
3704;SDS011;1868;48.918;9.438;2023-05-20T04:23:25;7.70;;;3.20;;
3704;SDS011;1868;48.918;9.438;2023-05-20T04:25:54;5.37;;;4.00;;
3704;SDS011;1868;48.918;9.438;2023-05-20T04:28:30;4.40;;;4.00;;
3704;SDS011;1868;48.918;9.438;2023-05-20T04:31:01;4.73;;;3.80;;
3704;SDS011;1868;48.918;9.438;2023-05-20T04:33:33;4.07;;;3.73;;
3704;SDS011;1868;48.918;9.438;2023-05-20T04:36:05;5.80;;;3.80;;
3704;SDS011;1868;48.918;9.438;2023-05-20T04:38:39;3.97;;;3.47;;
3704;SDS011;1868;48.918;9.438;2023-05-20T04:41:10;5.60;;;3.80;;
3704;SDS011;1868;48.918;9.438;2023-05-20T04:43:39;4.07;;;3.67;;
3704;SDS011;1868;48.918;9.438;2023-05-20T04:46:09;5.80;;;3.27;;
3704;SDS011;1868;48.918;9.438;2023-05-20T04:48:40;9.40;;;3.83;;
3704;SDS011;1868;48.918;9.438;2023-05-20T04:51:11;5.03;;;4.37;;
3704;SDS011;1868;48.918;9.438;2023-05-20T04:53:40;4.93;;;3.90;;
3704;SDS011;1868;48.918;9.438;2023-05-20T04:56:11;4.73;;;3.77;;
3704;SDS011;1868;48.918;9.438;2023-05-20T04:58:43;4.70;;;4.23;;
3704;SDS011;1868;48.918;9.438;2023-05-20T05:01:14;4.33;;;3.93;;
3704;SDS011;1868;48.918;9.438;2023-05-20T05:03:44;4.10;;;3.70;;
3704;SDS011;1868;48.918;9.438;2023-05-20T05:06:13;9.00;;;5.33;;
3704;SDS011;1868;48.918;9.438;2023-05-20T05:08:42;4.57;;;4.10;;
3704;SDS011;1868;48.918;9.438;2023-05-20T05:11:11;5.90;;;4.27;;
3704;SDS011;1868;48.918;9.438;2023-05-20T05:13:40;4.87;;;4.07;;
3704;SDS011;1868;48.918;9.438;2023-05-20T05:16:16;6.73;;;4.27;;
3704;SDS011;1868;48.918;9.438;2023-05-20T05:18:45;4.93;;;4.43;;
3704;SDS011;1868;48.918;9.438;2023-05-20T05:21:15;5.63;;;4.33;;
3704;SDS011;1868;48.918;9.438;2023-05-20T05:23:46;4.40;;;4.00;;
3704;SDS011;1868;48.918;9.438;2023-05-20T05:26:16;5.43;;;4.00;;
3704;SDS011;1868;48.918;9.438;2023-05-20T05:28:44;4.03;;;3.70;;
3704;SDS011;1868;48.918;9.438;2023-05-20T05:31:15;5.07;;;4.57;;
3704;SDS011;1868;48.918;9.438;2023-05-20T05:33:43;6.10;;;4.27;;
3704;SDS011;1868;48.918;9.438;2023-05-20T05:36:13;4.10;;;3.77;;
3704;SDS011;1868;48.918;9.438;2023-05-20T05:38:43;6.37;;;4.00;;
3704;SDS011;1868;48.918;9.438;2023-05-20T05:41:12;4.93;;;4.50;;
3704;SDS011;1868;48.918;9.438;2023-05-20T05:43:43;9.70;;;5.80;;
3704;SDS011;1868;48.918;9.438;2023-05-20T05:46:15;5.83;;;4.40;;
3704;SDS011;1868;48.918;9.438;2023-05-20T05:48:44;6.53;;;4.50;;
3704;SDS011;1868;48.918;9.438;2023-05-20T05:51:16;5.70;;;5.10;;
3704;SDS011;1868;48.918;9.438;2023-05-20T05:53:47;6.90;;;5.27;;
3704;SDS011;1868;48.918;9.438;2023-05-20T05:56:16;5.60;;;4.83;;
3704;SDS011;1868;48.918;9.438;2023-05-20T05:58:48;8.07;;;5.00;;
3704;SDS011;1868;48.918;9.438;2023-05-20T06:01:18;5.17;;;4.60;;
3704;SDS011;1868;48.918;9.438;2023-05-20T06:03:48;4.23;;;3.93;;
3704;SDS011;1868;48.918;9.438;2023-05-20T06:06:17;5.60;;;4.23;;
3704;SDS011;1868;48.918;9.438;2023-05-20T06:08:46;5.97;;;5.10;;
3704;SDS011;1868;48.918;9.438;2023-05-20T06:11:16;10.60;;;5.90;;
3704;SDS011;1868;48.918;9.438;2023-05-20T06:13:46;6.17;;;4.80;;
3704;SDS011;1868;48.918;9.438;2023-05-20T06:16:16;5.90;;;5.37;;
3704;SDS011;1868;48.918;9.438;2023-05-20T06:18:47;6.80;;;5.43;;
3704;SDS011;1868;48.918;9.438;2023-05-20T06:21:18;7.47;;;5.43;;
3704;SDS011;1868;48.918;9.438;2023-05-20T06:23:48;5.63;;;4.83;;
3704;SDS011;1868;48.918;9.438;2023-05-20T06:26:17;5.20;;;4.80;;
3704;SDS011;1868;48.918;9.438;2023-05-20T06:28:46;5.70;;;5.10;;
3704;SDS011;1868;48.918;9.438;2023-05-20T06:31:15;6.83;;;4.93;;
3704;SDS011;1868;48.918;9.438;2023-05-20T06:33:47;6.00;;;5.40;;
3704;SDS011;1868;48.918;9.438;2023-05-20T06:36:16;6.00;;;5.00;;
3704;SDS011;1868;48.918;9.438;2023-05-20T06:38:45;5.43;;;5.03;;
3704;SDS011;1868;48.918;9.438;2023-05-20T06:41:15;7.30;;;5.40;;
3704;SDS011;1868;48.918;9.438;2023-05-20T06:43:45;6.17;;;5.03;;
3704;SDS011;1868;48.918;9.438;2023-05-20T06:46:37;5.23;;;4.77;;
3704;SDS011;1868;48.918;9.438;2023-05-20T06:49:12;8.20;;;5.67;;
3704;SDS011;1868;48.918;9.438;2023-05-20T06:51:40;5.63;;;5.00;;
3704;SDS011;1868;48.918;9.438;2023-05-20T06:54:10;5.43;;;4.93;;
3704;SDS011;1868;48.918;9.438;2023-05-20T06:56:40;5.30;;;4.67;;
3704;SDS011;1868;48.918;9.438;2023-05-20T06:59:14;6.73;;;4.60;;
3704;SDS011;1868;48.918;9.438;2023-05-20T07:01:42;6.40;;;4.80;;
3704;SDS011;1868;48.918;9.438;2023-05-20T07:04:14;4.60;;;4.20;;
3704;SDS011;1868;48.918;9.438;2023-05-20T07:06:43;5.93;;;5.23;;
3704;SDS011;1868;48.918;9.438;2023-05-20T07:09:12;13.43;;;5.87;;
3704;SDS011;1868;48.918;9.438;2023-05-20T07:11:44;7.70;;;5.47;;
3704;SDS011;1868;48.918;9.438;2023-05-20T07:14:13;5.13;;;4.63;;
3704;SDS011;1868;48.918;9.438;2023-05-20T07:16:46;4.90;;;4.50;;
3704;SDS011;1868;48.918;9.438;2023-05-20T07:19:17;7.13;;;4.60;;
3704;SDS011;1868;48.918;9.438;2023-05-20T07:21:46;5.67;;;5.20;;
3704;SDS011;1868;48.918;9.438;2023-05-20T07:24:35;5.03;;;4.53;;
3704;SDS011;1868;48.918;9.438;2023-05-20T07:27:06;4.70;;;4.20;;
3704;SDS011;1868;48.918;9.438;2023-05-20T07:29:35;5.80;;;5.10;;
3704;SDS011;1868;48.918;9.438;2023-05-20T07:32:07;5.10;;;4.60;;
3704;SDS011;1868;48.918;9.438;2023-05-20T07:34:39;4.80;;;4.40;;
3704;SDS011;1868;48.918;9.438;2023-05-20T07:37:09;5.73;;;5.13;;
3704;SDS011;1868;48.918;9.438;2023-05-20T07:39:41;4.70;;;3.80;;
3704;SDS011;1868;48.918;9.438;2023-05-20T07:42:09;5.13;;;4.63;;
3704;SDS011;1868;48.918;9.438;2023-05-20T07:44:42;4.73;;;4.33;;
3704;SDS011;1868;48.918;9.438;2023-05-20T07:47:11;4.73;;;4.03;;
3704;SDS011;1868;48.918;9.438;2023-05-20T07:49:42;5.10;;;4.70;;
3704;SDS011;1868;48.918;9.438;2023-05-20T07:52:12;6.53;;;5.17;;
3704;SDS011;1868;48.918;9.438;2023-05-20T07:54:41;5.23;;;4.57;;
3704;SDS011;1868;48.918;9.438;2023-05-20T07:57:11;4.73;;;4.23;;
3704;SDS011;1868;48.918;9.438;2023-05-20T07:59:41;5.40;;;4.33;;
3704;SDS011;1868;48.918;9.438;2023-05-20T08:02:11;6.43;;;4.50;;
3704;SDS011;1868;48.918;9.438;2023-05-20T08:04:39;5.93;;;4.17;;
3704;SDS011;1868;48.918;9.438;2023-05-20T08:07:10;5.33;;;4.23;;
3704;SDS011;1868;48.918;9.438;2023-05-20T08:09:46;4.70;;;4.30;;
3704;SDS011;1868;48.918;9.438;2023-05-20T08:12:15;5.03;;;4.60;;
3704;SDS011;1868;48.918;9.438;2023-05-20T08:14:44;4.57;;;4.17;;
3704;SDS011;1868;48.918;9.438;2023-05-20T08:17:12;5.67;;;5.20;;
3704;SDS011;1868;48.918;9.438;2023-05-20T08:19:42;5.00;;;4.57;;
3704;SDS011;1868;48.918;9.438;2023-05-20T08:22:14;4.70;;;4.30;;
3704;SDS011;1868;48.918;9.438;2023-05-20T08:24:43;5.80;;;3.80;;
3704;SDS011;1868;48.918;9.438;2023-05-20T08:27:14;5.93;;;4.63;;
3704;SDS011;1868;48.918;9.438;2023-05-20T08:29:43;8.80;;;4.13;;
3704;SDS011;1868;48.918;9.438;2023-05-20T08:32:12;4.37;;;4.07;;
3704;SDS011;1868;48.918;9.438;2023-05-20T08:34:41;4.27;;;3.97;;
3704;SDS011;1868;48.918;9.438;2023-05-20T08:37:09;4.00;;;3.60;;
3704;SDS011;1868;48.918;9.438;2023-05-20T08:39:40;5.30;;;4.80;;
3704;SDS011;1868;48.918;9.438;2023-05-20T08:42:11;4.67;;;4.27;;
3704;SDS011;1868;48.918;9.438;2023-05-20T08:44:40;5.10;;;4.60;;
3704;SDS011;1868;48.918;9.438;2023-05-20T08:47:13;9.43;;;4.40;;
3704;SDS011;1868;48.918;9.438;2023-05-20T08:49:41;4.27;;;3.97;;
3704;SDS011;1868;48.918;9.438;2023-05-20T08:52:11;5.43;;;4.20;;
3704;SDS011;1868;48.918;9.438;2023-05-20T08:54:44;4.77;;;4.37;;
3704;SDS011;1868;48.918;9.438;2023-05-20T08:57:16;4.43;;;4.00;;
3704;SDS011;1868;48.918;9.438;2023-05-20T08:59:47;4.43;;;3.70;;
3704;SDS011;1868;48.918;9.438;2023-05-20T09:02:16;4.43;;;4.03;;
3704;SDS011;1868;48.918;9.438;2023-05-20T09:04:45;3.80;;;3.53;;
3704;SDS011;1868;48.918;9.438;2023-05-20T09:07:24;4.23;;;3.93;;
3704;SDS011;1868;48.918;9.438;2023-05-20T09:09:56;5.23;;;4.70;;
3704;SDS011;1868;48.918;9.438;2023-05-20T09:12:25;3.17;;;2.97;;
3704;SDS011;1868;48.918;9.438;2023-05-20T09:14:54;4.60;;;4.30;;
3704;SDS011;1868;48.918;9.438;2023-05-20T09:17:23;3.93;;;3.63;;
3704;SDS011;1868;48.918;9.438;2023-05-20T09:19:53;6.10;;;4.30;;
3704;SDS011;1868;48.918;9.438;2023-05-20T09:22:23;3.20;;;3.00;;
3704;SDS011;1868;48.918;9.438;2023-05-20T09:24:53;4.17;;;3.60;;
3704;SDS011;1868;48.918;9.438;2023-05-20T09:27:24;5.97;;;3.90;;
3704;SDS011;1868;48.918;9.438;2023-05-20T09:29:53;5.30;;;3.50;;
3704;SDS011;1868;48.918;9.438;2023-05-20T09:32:22;4.00;;;3.60;;
3704;SDS011;1868;48.918;9.438;2023-05-20T09:34:53;4.10;;;3.80;;
3704;SDS011;1868;48.918;9.438;2023-05-20T09:37:24;8.17;;;3.80;;
3704;SDS011;1868;48.918;9.438;2023-05-20T09:39:59;4.20;;;3.77;;
3704;SDS011;1868;48.918;9.438;2023-05-20T09:42:34;3.33;;;3.13;;
3704;SDS011;1868;48.918;9.438;2023-05-20T09:45:07;4.47;;;4.03;;
3704;SDS011;1868;48.918;9.438;2023-05-20T09:47:37;3.70;;;3.40;;
3704;SDS011;1868;48.918;9.438;2023-05-20T09:50:08;3.67;;;3.30;;
3704;SDS011;1868;48.918;9.438;2023-05-20T09:52:38;3.63;;;3.33;;
3704;SDS011;1868;48.918;9.438;2023-05-20T09:55:09;6.27;;;4.23;;
3704;SDS011;1868;48.918;9.438;2023-05-20T09:57:40;3.40;;;3.17;;
3704;SDS011;1868;48.918;9.438;2023-05-20T10:00:11;3.70;;;3.40;;
3704;SDS011;1868;48.918;9.438;2023-05-20T10:02:43;3.33;;;3.00;;
3704;SDS011;1868;48.918;9.438;2023-05-20T10:05:16;5.73;;;3.03;;
3704;SDS011;1868;48.918;9.438;2023-05-20T10:07:57;3.70;;;3.40;;
3704;SDS011;1868;48.918;9.438;2023-05-20T10:11:18;4.20;;;3.90;;
3704;SDS011;1868;48.918;9.438;2023-05-20T10:14:02;3.33;;;3.03;;
3704;SDS011;1868;48.918;9.438;2023-05-20T10:16:55;6.67;;;3.97;;
3704;SDS011;1868;48.918;9.438;2023-05-20T10:19:35;3.93;;;3.63;;
3704;SDS011;1868;48.918;9.438;2023-05-20T10:22:05;4.13;;;3.83;;
3704;SDS011;1868;48.918;9.438;2023-05-20T10:24:37;3.87;;;3.50;;
3704;SDS011;1868;48.918;9.438;2023-05-20T10:27:09;6.43;;;3.87;;
3704;SDS011;1868;48.918;9.438;2023-05-20T10:29:41;3.50;;;3.30;;
3704;SDS011;1868;48.918;9.438;2023-05-20T10:32:22;3.50;;;3.30;;
3704;SDS011;1868;48.918;9.438;2023-05-20T10:34:57;3.97;;;3.57;;
3704;SDS011;1868;48.918;9.438;2023-05-20T10:37:31;4.80;;;3.87;;
3704;SDS011;1868;48.918;9.438;2023-05-20T10:40:09;3.90;;;3.60;;
3704;SDS011;1868;48.918;9.438;2023-05-20T10:42:42;3.87;;;3.57;;
3704;SDS011;1868;48.918;9.438;2023-05-20T10:45:12;4.23;;;3.83;;
3704;SDS011;1868;48.918;9.438;2023-05-20T10:47:53;3.67;;;3.37;;
3704;SDS011;1868;48.918;9.438;2023-05-20T10:50:26;5.87;;;4.10;;
3704;SDS011;1868;48.918;9.438;2023-05-20T10:53:03;3.33;;;2.53;;
3704;SDS011;1868;48.918;9.438;2023-05-20T10:55:47;4.43;;;3.97;;
3704;SDS011;1868;48.918;9.438;2023-05-20T10:58:21;3.83;;;3.53;;
3704;SDS011;1868;48.918;9.438;2023-05-20T11:00:52;4.07;;;3.73;;
3704;SDS011;1868;48.918;9.438;2023-05-20T11:03:22;5.63;;;3.93;;
3704;SDS011;1868;48.918;9.438;2023-05-20T11:05:51;3.33;;;3.13;;
3704;SDS011;1868;48.918;9.438;2023-05-20T11:08:21;6.00;;;3.43;;
3704;SDS011;1868;48.918;9.438;2023-05-20T11:10:56;3.33;;;3.00;;
3704;SDS011;1868;48.918;9.438;2023-05-20T11:13:27;4.17;;;3.77;;
3704;SDS011;1868;48.918;9.438;2023-05-20T11:15:56;4.13;;;3.83;;
3704;SDS011;1868;48.918;9.438;2023-05-20T11:18:25;3.80;;;3.40;;
3704;SDS011;1868;48.918;9.438;2023-05-20T11:20:57;3.10;;;2.90;;
3704;SDS011;1868;48.918;9.438;2023-05-20T11:23:27;3.20;;;3.00;;
3704;SDS011;1868;48.918;9.438;2023-05-20T11:25:56;3.23;;;3.03;;
3704;SDS011;1868;48.918;9.438;2023-05-20T11:28:28;3.00;;;2.80;;
3704;SDS011;1868;48.918;9.438;2023-05-20T11:30:58;3.67;;;3.37;;
3704;SDS011;1868;48.918;9.438;2023-05-20T11:33:28;3.80;;;3.50;;
3704;SDS011;1868;48.918;9.438;2023-05-20T11:35:58;9.13;;;3.57;;
3704;SDS011;1868;48.918;9.438;2023-05-20T11:38:27;3.60;;;3.20;;
3704;SDS011;1868;48.918;9.438;2023-05-20T11:40:58;3.30;;;3.10;;
3704;SDS011;1868;48.918;9.438;2023-05-20T11:43:28;4.70;;;4.30;;
3704;SDS011;1868;48.918;9.438;2023-05-20T11:46:01;4.67;;;4.27;;
3704;SDS011;1868;48.918;9.438;2023-05-20T11:48:32;4.53;;;3.40;;
3704;SDS011;1868;48.918;9.438;2023-05-20T11:51:01;3.83;;;3.30;;
3704;SDS011;1868;48.918;9.438;2023-05-20T11:53:30;3.70;;;3.40;;
3704;SDS011;1868;48.918;9.438;2023-05-20T11:55:58;4.73;;;3.33;;
3704;SDS011;1868;48.918;9.438;2023-05-20T11:58:30;5.00;;;3.10;;
3704;SDS011;1868;48.918;9.438;2023-05-20T12:01:01;8.40;;;3.33;;
3704;SDS011;1868;48.918;9.438;2023-05-20T12:03:47;8.13;;;3.33;;
3704;SDS011;1868;48.918;9.438;2023-05-20T12:06:17;4.20;;;3.27;;
3704;SDS011;1868;48.918;9.438;2023-05-20T12:08:46;3.93;;;3.63;;
3704;SDS011;1868;48.918;9.438;2023-05-20T12:11:15;4.73;;;3.80;;
3704;SDS011;1868;48.918;9.438;2023-05-20T12:13:47;3.97;;;3.63;;
3704;SDS011;1868;48.918;9.438;2023-05-20T12:16:16;6.43;;;3.90;;
3704;SDS011;1868;48.918;9.438;2023-05-20T12:18:45;4.10;;;3.80;;
3704;SDS011;1868;48.918;9.438;2023-05-20T12:21:16;4.30;;;3.90;;
3704;SDS011;1868;48.918;9.438;2023-05-20T12:23:44;3.40;;;3.10;;
3704;SDS011;1868;48.918;9.438;2023-05-20T12:26:14;3.70;;;3.40;;
3704;SDS011;1868;48.918;9.438;2023-05-20T12:28:43;4.00;;;3.03;;
3704;SDS011;1868;48.918;9.438;2023-05-20T12:31:14;4.10;;;3.37;;
3704;SDS011;1868;48.918;9.438;2023-05-20T12:33:44;3.90;;;3.60;;
3704;SDS011;1868;48.918;9.438;2023-05-20T12:36:13;3.40;;;3.20;;
3704;SDS011;1868;48.918;9.438;2023-05-20T12:38:42;3.30;;;3.10;;
3704;SDS011;1868;48.918;9.438;2023-05-20T12:41:12;9.83;;;3.67;;
3704;SDS011;1868;48.918;9.438;2023-05-20T12:43:41;3.60;;;3.40;;
3704;SDS011;1868;48.918;9.438;2023-05-20T12:46:10;3.53;;;3.33;;
3704;SDS011;1868;48.918;9.438;2023-05-20T12:48:41;3.80;;;3.60;;
3704;SDS011;1868;48.918;9.438;2023-05-20T12:51:10;6.73;;;3.90;;
3704;SDS011;1868;48.918;9.438;2023-05-20T12:53:38;3.77;;;3.47;;
3704;SDS011;1868;48.918;9.438;2023-05-20T12:56:07;3.40;;;3.10;;
3704;SDS011;1868;48.918;9.438;2023-05-20T12:58:36;4.70;;;2.90;;
3704;SDS011;1868;48.918;9.438;2023-05-20T13:01:06;3.50;;;3.20;;
3704;SDS011;1868;48.918;9.438;2023-05-20T13:03:36;3.23;;;3.00;;
3704;SDS011;1868;48.918;9.438;2023-05-20T13:06:06;4.73;;;3.53;;
3704;SDS011;1868;48.918;9.438;2023-05-20T13:08:36;3.93;;;3.63;;
3704;SDS011;1868;48.918;9.438;2023-05-20T13:11:04;3.60;;;3.30;;
3704;SDS011;1868;48.918;9.438;2023-05-20T13:13:33;3.20;;;3.00;;
3704;SDS011;1868;48.918;9.438;2023-05-20T13:16:02;3.63;;;3.37;;
3704;SDS011;1868;48.918;9.438;2023-05-20T13:18:32;5.50;;;3.27;;
3704;SDS011;1868;48.918;9.438;2023-05-20T13:21:00;3.70;;;3.40;;
3704;SDS011;1868;48.918;9.438;2023-05-20T13:23:31;3.73;;;3.27;;
3704;SDS011;1868;48.918;9.438;2023-05-20T13:25:59;3.87;;;3.17;;
3704;SDS011;1868;48.918;9.438;2023-05-20T13:28:28;3.70;;;3.40;;
3704;SDS011;1868;48.918;9.438;2023-05-20T13:30:57;3.87;;;2.80;;
3704;SDS011;1868;48.918;9.438;2023-05-20T13:33:28;2.77;;;2.57;;
3704;SDS011;1868;48.918;9.438;2023-05-20T13:35:57;3.57;;;3.23;;
3704;SDS011;1868;48.918;9.438;2023-05-20T13:38:28;3.50;;;3.20;;
3704;SDS011;1868;48.918;9.438;2023-05-20T13:40:59;3.33;;;2.63;;
3704;SDS011;1868;48.918;9.438;2023-05-20T13:43:27;3.93;;;3.57;;
3704;SDS011;1868;48.918;9.438;2023-05-20T13:45:59;3.53;;;3.23;;
3704;SDS011;1868;48.918;9.438;2023-05-20T13:48:29;3.00;;;2.90;;
3704;SDS011;1868;48.918;9.438;2023-05-20T13:50:58;3.87;;;3.57;;
3704;SDS011;1868;48.918;9.438;2023-05-20T13:53:28;8.37;;;3.40;;
3704;SDS011;1868;48.918;9.438;2023-05-20T13:56:02;3.30;;;2.97;;
3704;SDS011;1868;48.918;9.438;2023-05-20T13:58:31;3.00;;;2.80;;
3704;SDS011;1868;48.918;9.438;2023-05-20T14:00:59;3.30;;;3.13;;
3704;SDS011;1868;48.918;9.438;2023-05-20T14:03:29;4.97;;;3.73;;
3704;SDS011;1868;48.918;9.438;2023-05-20T14:06:00;3.70;;;3.13;;
3704;SDS011;1868;48.918;9.438;2023-05-20T14:08:28;3.60;;;3.30;;
3704;SDS011;1868;48.918;9.438;2023-05-20T14:10:57;6.73;;;2.90;;
3704;SDS011;1868;48.918;9.438;2023-05-20T14:13:30;8.73;;;3.33;;
3704;SDS011;1868;48.918;9.438;2023-05-20T14:15:59;5.20;;;3.73;;
3704;SDS011;1868;48.918;9.438;2023-05-20T14:18:27;3.60;;;3.30;;
3704;SDS011;1868;48.918;9.438;2023-05-20T14:20:56;3.50;;;3.30;;
3704;SDS011;1868;48.918;9.438;2023-05-20T14:23:25;3.53;;;3.33;;
3704;SDS011;1868;48.918;9.438;2023-05-20T14:25:53;5.13;;;3.40;;
3704;SDS011;1868;48.918;9.438;2023-05-20T14:28:22;6.47;;;3.47;;
3704;SDS011;1868;48.918;9.438;2023-05-20T14:30:53;5.47;;;3.77;;
3704;SDS011;1868;48.918;9.438;2023-05-20T14:33:22;3.73;;;3.53;;
3704;SDS011;1868;48.918;9.438;2023-05-20T14:35:50;3.33;;;3.13;;
3704;SDS011;1868;48.918;9.438;2023-05-20T14:38:19;2.83;;;2.50;;
3704;SDS011;1868;48.918;9.438;2023-05-20T14:40:48;5.23;;;3.27;;
3704;SDS011;1868;48.918;9.438;2023-05-20T14:43:17;3.93;;;3.63;;
3704;SDS011;1868;48.918;9.438;2023-05-20T14:45:48;3.47;;;3.13;;
3704;SDS011;1868;48.918;9.438;2023-05-20T14:48:19;3.60;;;3.30;;
3704;SDS011;1868;48.918;9.438;2023-05-20T14:50:47;4.50;;;3.97;;
3704;SDS011;1868;48.918;9.438;2023-05-20T14:53:16;3.40;;;3.20;;
3704;SDS011;1868;48.918;9.438;2023-05-20T14:55:45;4.30;;;4.00;;
3704;SDS011;1868;48.918;9.438;2023-05-20T14:58:14;4.33;;;3.93;;
3704;SDS011;1868;48.918;9.438;2023-05-20T15:00:43;6.93;;;3.80;;
3704;SDS011;1868;48.918;9.438;2023-05-20T15:03:11;4.10;;;3.70;;
3704;SDS011;1868;48.918;9.438;2023-05-20T15:05:42;3.93;;;3.53;;
3704;SDS011;1868;48.918;9.438;2023-05-20T15:08:11;3.60;;;3.30;;
3704;SDS011;1868;48.918;9.438;2023-05-20T15:10:40;3.40;;;3.20;;
3704;SDS011;1868;48.918;9.438;2023-05-20T15:13:11;3.40;;;3.00;;
3704;SDS011;1868;48.918;9.438;2023-05-20T15:15:39;4.20;;;3.80;;
3704;SDS011;1868;48.918;9.438;2023-05-20T15:18:08;3.13;;;2.93;;
3704;SDS011;1868;48.918;9.438;2023-05-20T15:20:38;7.70;;;4.17;;
3704;SDS011;1868;48.918;9.438;2023-05-20T15:23:09;6.83;;;3.30;;
3704;SDS011;1868;48.918;9.438;2023-05-20T15:25:38;3.50;;;3.20;;
3704;SDS011;1868;48.918;9.438;2023-05-20T15:28:07;3.33;;;3.07;;
3704;SDS011;1868;48.918;9.438;2023-05-20T15:30:38;3.37;;;3.17;;
3704;SDS011;1868;48.918;9.438;2023-05-20T15:33:07;6.27;;;3.30;;
3704;SDS011;1868;48.918;9.438;2023-05-20T15:35:37;4.70;;;4.30;;
3704;SDS011;1868;48.918;9.438;2023-05-20T15:38:05;4.27;;;3.73;;